Time,TemperatureF,DewpointF,PressureIn,WindDirection,WindDirectionDegrees,WindSpeedMPH,WindSpeedGustMPH,Humidity,HourlyPrecipIn,Conditions,Clouds,dailyrainin,SoftwareType,DateUTC
2013-02-22 00:00:00,49.7,14.4,30.06,NNE,28,4.0,12.0,24,0.00,,---,0.00,VWS V14.00,2013-02-22 08:00:00,
2013-02-22 00:05:00,49.7,14.4,30.07,NNE,28,5.0,13.0,24,0.00,,---,0.00,VWS V14.00,2013-02-22 08:05:00,
2013-02-22 00:10:00,49.4,14.1,30.06,NNE,28,10.0,13.0,24,0.00,,---,0.00,VWS V14.00,2013-02-22 08:10:00,
2013-02-22 00:15:00,49.2,14.9,30.07,NNE,28,2.0,12.0,25,0.00,,---,0.00,VWS V14.00,2013-02-22 08:15:00,
2013-02-22 00:20:00,48.4,14.2,30.07,NNE,13,8.0,14.0,25,0.00,,---,0.00,VWS V14.00,2013-02-22 08:20:00,
2013-02-22 00:25:00,48.3,15.0,30.07,NNE,13,0.0,8.0,26,0.00,,---,0.00,VWS V14.00,2013-02-22 08:25:00,
2013-02-22 00:30:00,48.0,14.8,30.07,NNE,13,3.0,4.0,26,0.00,,---,0.00,VWS V14.00,2013-02-22 08:30:00,
2013-02-22 00:35:00,48.3,15.0,30.07,NNE,13,2.0,6.0,26,0.00,,---,0.00,VWS V14.00,2013-02-22 08:35:00,
2013-02-22 00:40:00,48.3,15.0,30.08,NNE,13,2.0,8.0,26,0.00,,---,0.00,VWS V14.00,2013-02-22 08:40:00,
2013-02-22 00:45:00,48.2,14.9,30.08,NNE,13,1.0,3.0,26,0.00,,---,0.00,VWS V14.00,2013-02-22 08:45:00,
2013-02-22 00:50:00,47.7,15.4,30.08,NNE,13,7.0,10.0,27,0.00,,---,0.00,VWS V14.00,2013-02-22 08:50:00,
2013-02-22 00:55:00,47.4,15.1,30.08,NNE,13,3.0,8.0,27,0.00,,---,0.00,VWS V14.00,2013-02-22 08:55:00,
2013-02-22 01:00:00,47.2,15.8,30.07,NNE,13,2.0,8.0,28,0.00,,---,0.00,VWS V14.00,2013-02-22 09:00:00,
2013-02-22 01:05:00,47.5,15.2,30.07,NNE,13,2.0,12.0,27,0.00,,---,0.00,VWS V14.00,2013-02-22 09:05:00,
2013-02-22 01:10:00,48.4,14.2,30.07,NNE,13,4.0,13.0,25,0.00,,---,0.00,VWS V14.00,2013-02-22 09:10:00,
2013-02-22 01:15:00,48.7,14.5,30.08,NNE,13,14.0,16.0,25,0.00,,---,0.00,VWS V14.00,2013-02-22 09:15:00,
2013-02-22 01:20:00,48.8,13.6,30.07,NNE,13,13.0,15.0,24,0.00,,---,0.00,VWS V14.00,2013-02-22 09:20:00,
2013-02-22 01:25:00,48.3,14.1,30.07,NNE,15,6.0,16.0,25,0.00,,---,0.00,VWS V14.00,2013-02-22 09:25:00,
2013-02-22 01:30:00,48.3,14.1,30.07,NNE,15,5.0,12.0,25,0.00,,---,0.00,VWS V14.00,2013-02-22 09:30:00,
2013-02-22 01:35:00,48.6,14.4,30.07,NNE,15,6.0,14.0,25,0.00,,---,0.00,VWS V14.00,2013-02-22 09:35:00,
2013-02-22 01:40:00,48.5,14.3,30.07,NNE,15,4.0,13.0,25,0.00,,---,0.00,VWS V14.00,2013-02-22 09:40:00,
2013-02-22 01:45:00,48.3,14.1,30.07,NNE,15,11.0,13.0,25,0.00,,---,0.00,VWS V14.00,2013-02-22 09:45:00,
2013-02-22 01:50:00,48.3,14.1,30.07,NNE,15,4.0,11.0,25,0.00,,---,0.00,VWS V14.00,2013-02-22 09:50:00,
2013-02-22 01:55:00,48.3,13.2,30.08,NNE,16,11.0,13.0,24,0.00,,---,0.00,VWS V14.00,2013-02-22 09:55:00,
2013-02-22 02:00:00,48.4,13.3,30.07,NNE,16,9.0,13.0,24,0.00,,---,0.00,VWS V14.00,2013-02-22 10:00:00,
2013-02-22 02:05:00,48.6,13.5,30.07,NNE,16,2.0,14.0,24,0.00,,---,0.00,VWS V14.00,2013-02-22 10:05:00,
2013-02-22 02:10:00,48.7,13.5,30.07,NNE,16,5.0,9.0,24,0.00,,---,0.00,VWS V14.00,2013-02-22 10:10:00,
2013-02-22 02:15:00,49.1,12.9,30.08,NNE,16,5.0,13.0,23,0.00,,---,0.00,VWS V14.00,2013-02-22 10:15:00,
2013-02-22 02:20:00,49.3,13.1,30.07,NNE,16,5.0,11.0,23,0.00,,---,0.00,VWS V14.00,2013-02-22 10:20:00,
2013-02-22 02:25:00,49.5,13.2,30.07,NNE,16,1.0,16.0,23,0.00,,---,0.00,VWS V14.00,2013-02-22 10:25:00,
2013-02-22 02:30:00,48.9,13.7,30.07,NNE,16,10.0,13.0,24,0.00,,---,0.00,VWS V14.00,2013-02-22 10:30:00,
2013-02-22 02:35:00,48.1,14.9,30.08,NNE,16,6.0,11.0,26,0.00,,---,0.00,VWS V14.00,2013-02-22 10:35:00,
2013-02-22 02:40:00,47.6,14.4,30.08,NNE,16,6.0,10.0,26,0.00,,---,0.00,VWS V14.00,2013-02-22 10:40:00,
2013-02-22 02:45:00,47.3,15.0,30.08,NNE,16,3.0,8.0,27,0.00,,---,0.00,VWS V14.00,2013-02-22 10:45:00,
2013-02-22 02:50:00,47.3,15.0,30.08,NNE,16,0.0,4.0,27,0.00,,---,0.00,VWS V14.00,2013-02-22 10:50:00,
2013-02-22 02:55:00,47.5,14.3,30.08,NNE,16,3.0,10.0,26,0.00,,---,0.00,VWS V14.00,2013-02-22 10:55:00,
2013-02-22 03:00:00,47.5,14.3,30.08,NNE,16,5.0,10.0,26,0.00,,---,0.00,VWS V14.00,2013-02-22 11:00:00,
2013-02-22 03:05:00,47.8,13.7,30.08,NNE,16,1.0,11.0,25,0.00,,---,0.00,VWS V14.00,2013-02-22 11:05:00,
2013-02-22 03:10:00,48.4,14.2,30.08,NNE,16,2.0,7.0,25,0.00,,---,0.00,VWS V14.00,2013-02-22 11:10:00,
2013-02-22 03:15:00,49.2,14.0,30.08,NNE,15,4.0,17.0,24,0.00,,---,0.00,VWS V14.00,2013-02-22 11:15:00,
2013-02-22 03:20:00,49.2,14.0,30.08,NNE,16,5.0,13.0,24,0.00,,---,0.00,VWS V14.00,2013-02-22 11:20:00,
2013-02-22 03:25:00,48.8,14.6,30.09,NNE,16,4.0,9.0,25,0.00,,---,0.00,VWS V14.00,2013-02-22 11:25:00,
2013-02-22 03:30:00,48.6,14.4,30.08,NNE,16,10.0,13.0,25,0.00,,---,0.00,VWS V14.00,2013-02-22 11:30:00,
2013-02-22 03:35:00,48.6,14.4,30.08,NNE,16,1.0,12.0,25,0.00,,---,0.00,VWS V14.00,2013-02-22 11:35:00,
2013-02-22 03:40:00,48.6,14.4,30.09,NNE,16,3.0,10.0,25,0.00,,---,0.00,VWS V14.00,2013-02-22 11:40:00,
2013-02-22 03:45:00,48.5,14.3,30.08,NNE,16,4.0,12.0,25,0.00,,---,0.00,VWS V14.00,2013-02-22 11:45:00,
2013-02-22 03:50:00,48.4,15.1,30.08,NNE,16,6.0,8.0,26,0.00,,---,0.00,VWS V14.00,2013-02-22 11:50:00,
2013-02-22 03:55:00,48.3,14.1,30.08,NNE,16,2.0,6.0,25,0.00,,---,0.00,VWS V14.00,2013-02-22 11:55:00,
2013-02-22 04:00:00,48.5,14.3,30.09,NNE,16,1.0,9.0,25,0.00,,---,0.00,VWS V14.00,2013-02-22 12:00:00,
2013-02-22 04:05:00,48.5,15.2,30.09,NNE,16,5.0,10.0,26,0.00,,---,0.00,VWS V14.00,2013-02-22 12:05:00,
2013-02-22 04:10:00,47.5,15.2,30.09,NNE,16,2.0,5.0,27,0.00,,---,0.00,VWS V14.00,2013-02-22 12:10:00,
2013-02-22 04:15:00,47.0,16.4,30.09,NNE,16,2.0,4.0,29,0.00,,---,0.00,VWS V14.00,2013-02-22 12:15:00,
2013-02-22 04:20:00,46.3,16.6,30.09,NNE,16,1.0,4.0,30,0.00,,---,0.00,VWS V14.00,2013-02-22 12:20:00,
2013-02-22 04:26:00,46.1,16.4,30.09,NNE,16,0.0,3.0,30,0.00,,---,0.00,VWS V14.00,2013-02-22 12:26:00,
2013-02-22 04:31:00,46.0,16.3,30.09,NNE,16,2.0,4.0,30,0.00,,---,0.00,VWS V14.00,2013-02-22 12:31:00,
2013-02-22 04:36:00,45.8,16.9,30.09,NNE,16,0.0,3.0,31,0.00,,---,0.00,VWS V14.00,2013-02-22 12:36:00,
2013-02-22 04:41:00,45.8,16.1,30.09,NNE,16,2.0,3.0,30,0.00,,---,0.00,VWS V14.00,2013-02-22 12:41:00,
2013-02-22 04:46:00,45.6,16.7,30.09,NNE,16,2.0,4.0,31,0.00,,---,0.00,VWS V14.00,2013-02-22 12:46:00,
2013-02-22 04:51:00,46.0,14.7,30.09,NNE,16,2.0,3.0,28,0.00,,---,0.00,VWS V14.00,2013-02-22 12:51:00,
2013-02-22 04:56:00,46.2,15.7,30.09,NNE,16,2.0,4.0,29,0.00,,---,0.00,VWS V14.00,2013-02-22 12:56:00,
2013-02-22 05:01:00,46.2,16.5,30.10,NNE,16,2.0,4.0,30,0.00,,---,0.00,VWS V14.00,2013-02-22 13:01:00,
2013-02-22 05:06:00,45.4,16.5,30.10,NNE,16,2.0,4.0,31,0.00,,---,0.00,VWS V14.00,2013-02-22 13:06:00,
2013-02-22 05:11:00,45.1,16.3,30.10,NNE,16,2.0,4.0,31,0.00,,---,0.00,VWS V14.00,2013-02-22 13:11:00,
2013-02-22 05:16:00,44.5,16.5,30.10,NNE,16,1.0,6.0,32,0.00,,---,0.00,VWS V14.00,2013-02-22 13:16:00,
2013-02-22 05:21:00,44.1,16.9,30.10,NNE,16,1.0,3.0,33,0.00,,---,0.00,VWS V14.00,2013-02-22 13:21:00,
2013-02-22 05:26:00,43.9,16.7,30.10,NNE,16,3.0,3.0,33,0.00,,---,0.00,VWS V14.00,2013-02-22 13:26:00,
2013-02-22 05:31:00,44.6,15.9,30.10,NNE,16,1.0,3.0,31,0.00,,---,0.00,VWS V14.00,2013-02-22 13:31:00,
2013-02-22 05:36:00,45.4,15.8,30.11,NNE,16,2.0,10.0,30,0.00,,---,0.00,VWS V14.00,2013-02-22 13:36:00,
2013-02-22 05:41:00,46.6,14.4,30.11,NNE,16,2.0,3.0,27,0.00,,---,0.00,VWS V14.00,2013-02-22 13:41:00,
2013-02-22 05:46:00,47.9,13.8,30.11,NNE,16,2.0,3.0,25,0.00,,---,0.00,VWS V14.00,2013-02-22 13:46:00,
2013-02-22 05:51:00,47.3,15.9,30.11,NNE,16,4.0,4.0,28,0.00,,---,0.00,VWS V14.00,2013-02-22 13:51:00,
2013-02-22 05:56:00,47.2,13.2,30.11,NNE,16,0.0,4.0,25,0.00,,---,0.00,VWS V14.00,2013-02-22 13:56:00,
2013-02-22 06:01:00,47.4,15.9,30.11,NNE,16,2.0,6.0,28,0.00,,---,0.00,VWS V14.00,2013-02-22 14:01:00,
2013-02-22 06:06:00,46.4,15.9,30.11,NNE,16,1.0,3.0,29,0.00,,---,0.00,VWS V14.00,2013-02-22 14:06:00,
2013-02-22 06:11:00,45.9,15.4,30.11,NNE,16,1.0,4.0,29,0.00,,---,0.00,VWS V14.00,2013-02-22 14:11:00,
2013-02-22 06:16:00,46.1,15.6,30.11,NNE,16,2.0,3.0,29,0.00,,---,0.00,VWS V14.00,2013-02-22 14:16:00,
2013-02-22 06:21:00,46.5,16.0,30.12,NNE,16,4.0,9.0,29,0.00,,---,0.00,VWS V14.00,2013-02-22 14:21:00,
2013-02-22 06:26:00,45.8,16.1,30.12,NNE,16,8.0,11.0,30,0.00,,---,0.00,VWS V14.00,2013-02-22 14:26:00,
2013-02-22 06:31:00,46.0,16.3,30.12,NNE,16,2.0,9.0,30,0.00,,---,0.00,VWS V14.00,2013-02-22 14:31:00,
2013-02-22 06:36:00,46.7,16.1,30.12,NNE,16,2.0,12.0,29,0.00,,---,0.00,VWS V14.00,2013-02-22 14:36:00,
2013-02-22 06:41:00,47.7,16.2,30.13,NNE,16,0.0,13.0,28,0.00,,---,0.00,VWS V14.00,2013-02-22 14:41:00,
2013-02-22 06:46:00,47.7,17.0,30.13,NNE,16,2.0,4.0,29,0.00,,---,0.00,VWS V14.00,2013-02-22 14:46:00,
2013-02-22 06:51:00,47.6,16.9,30.13,NNE,16,2.0,4.0,29,0.00,,---,0.00,VWS V14.00,2013-02-22 14:51:00,
2013-02-22 06:56:00,48.1,16.5,30.14,NNE,16,1.0,5.0,28,0.00,,---,0.00,VWS V14.00,2013-02-22 14:56:00,
2013-02-22 07:01:00,48.5,17.7,30.14,NNE,16,1.0,6.0,29,0.00,,---,0.00,VWS V14.00,2013-02-22 15:01:00,
2013-02-22 07:06:00,49.1,17.4,30.14,NNE,16,2.0,5.0,28,0.00,,---,0.00,VWS V14.00,2013-02-22 15:06:00,
2013-02-22 07:11:00,49.6,17.9,30.14,NNE,16,2.0,3.0,28,0.00,,---,0.00,VWS V14.00,2013-02-22 15:11:00,
2013-02-22 07:16:00,50.1,17.4,30.14,NNE,16,2.0,6.0,27,0.00,,---,0.00,VWS V14.00,2013-02-22 15:16:00,
2013-02-22 07:21:00,50.6,17.9,30.15,NNE,16,0.0,4.0,27,0.00,,---,0.00,VWS V14.00,2013-02-22 15:21:00,
2013-02-22 07:26:00,51.3,17.6,30.15,NNE,16,5.0,5.0,26,0.00,,---,0.00,VWS V14.00,2013-02-22 15:26:00,
2013-02-22 07:31:00,51.5,17.8,30.15,NNE,16,2.0,7.0,26,0.00,,---,0.00,VWS V14.00,2013-02-22 15:31:00,
2013-02-22 07:36:00,51.9,18.1,30.15,NNE,16,2.0,6.0,26,0.00,,---,0.00,VWS V14.00,2013-02-22 15:36:00,
2013-02-22 07:41:00,52.7,16.9,30.15,NNE,16,2.0,7.0,24,0.00,,---,0.00,VWS V14.00,2013-02-22 15:41:00,
2013-02-22 07:46:00,53.2,16.4,30.16,NNE,16,4.0,7.0,23,0.00,,---,0.00,VWS V14.00,2013-02-22 15:46:00,
2013-02-22 07:51:00,53.6,16.7,30.16,NNE,16,3.0,6.0,23,0.00,,---,0.00,VWS V14.00,2013-02-22 15:51:00,
2013-02-22 07:56:00,53.9,17.0,30.16,NNE,16,3.0,8.0,23,0.00,,---,0.00,VWS V14.00,2013-02-22 15:56:00,
2013-02-22 08:01:00,53.6,20.5,30.16,NNE,16,0.0,9.0,27,0.00,,---,0.00,VWS V14.00,2013-02-22 16:01:00,
2013-02-22 08:06:00,53.5,18.6,30.16,NNE,16,8.0,10.0,25,0.00,,---,0.00,VWS V14.00,2013-02-22 16:06:00,
2013-02-22 08:11:00,53.4,18.5,30.16,NNE,15,6.0,12.0,25,0.00,,---,0.00,VWS V14.00,2013-02-22 16:11:00,
2013-02-22 08:16:00,53.5,18.6,30.16,NNE,15,5.0,10.0,25,0.00,,---,0.00,VWS V14.00,2013-02-22 16:16:00,
2013-02-22 08:21:00,53.8,18.8,30.16,NNE,15,7.0,10.0,25,0.00,,---,0.00,VWS V14.00,2013-02-22 16:21:00,
2013-02-22 08:26:00,54.4,18.4,30.17,NNE,15,8.0,9.0,24,0.00,,---,0.00,VWS V14.00,2013-02-22 16:26:00,
2013-02-22 08:31:00,54.9,17.8,30.17,North,11,2.0,14.0,23,0.00,,---,0.00,VWS V14.00,2013-02-22 16:31:00,
2013-02-22 08:36:00,55.4,18.2,30.17,North,11,7.0,12.0,23,0.00,,---,0.00,VWS V14.00,2013-02-22 16:36:00,
2013-02-22 08:41:00,55.6,17.4,30.17,North,9,8.0,14.0,22,0.00,,---,0.00,VWS V14.00,2013-02-22 16:41:00,
2013-02-22 08:46:00,55.9,17.6,30.17,North,5,8.0,13.0,22,0.00,,---,0.00,VWS V14.00,2013-02-22 16:46:00,
2013-02-22 08:51:00,56.1,17.8,30.17,North,360,8.0,16.0,22,0.00,,---,0.00,VWS V14.00,2013-02-22 16:51:00,
2013-02-22 08:56:00,56.5,18.1,30.17,North,360,13.0,13.0,22,0.00,,---,0.00,VWS V14.00,2013-02-22 16:56:00,
2013-02-22 09:01:00,56.8,18.4,30.17,North,355,8.0,15.0,22,0.00,,---,0.00,VWS V14.00,2013-02-22 17:01:00,
2013-02-22 09:06:00,57.2,17.6,30.17,North,355,8.0,12.0,21,0.00,,---,0.00,VWS V14.00,2013-02-22 17:06:00,
2013-02-22 09:11:00,57.5,15.6,30.17,North,355,6.0,11.0,19,0.00,,---,0.00,VWS V14.00,2013-02-22 17:11:00,
2013-02-22 09:16:00,57.7,16.9,30.17,North,355,8.0,10.0,20,0.00,,---,0.00,VWS V14.00,2013-02-22 17:16:00,
2013-02-22 09:21:00,57.8,15.8,30.17,NNW,347,8.0,17.0,19,0.00,,---,0.00,VWS V14.00,2013-02-22 17:21:00,
2013-02-22 09:26:00,58.2,16.2,30.17,NNW,347,2.0,10.0,19,0.00,,---,0.00,VWS V14.00,2013-02-22 17:26:00,
2013-02-22 09:31:00,58.4,16.3,30.17,NNW,347,10.0,11.0,19,0.00,,---,0.00,VWS V14.00,2013-02-22 17:31:00,
2013-02-22 09:36:00,58.4,16.3,30.17,NNW,347,5.0,10.0,19,0.00,,---,0.00,VWS V14.00,2013-02-22 17:36:00,
2013-02-22 09:41:00,58.5,16.4,30.17,NNW,347,4.0,12.0,19,0.00,,---,0.00,VWS V14.00,2013-02-22 17:41:00,
2013-02-22 09:46:00,58.5,16.4,30.17,NNW,346,0.0,16.0,19,0.00,,---,0.00,VWS V14.00,2013-02-22 17:46:00,
2013-02-22 09:51:00,58.7,16.6,30.17,NNW,346,2.0,8.0,19,0.00,,---,0.00,VWS V14.00,2013-02-22 17:51:00,
2013-02-22 09:56:00,58.8,16.7,30.17,NNW,346,9.0,12.0,19,0.00,,---,0.00,VWS V14.00,2013-02-22 17:56:00,
2013-02-22 10:01:00,58.9,16.7,30.17,NNW,346,0.0,14.0,19,0.00,,---,0.00,VWS V14.00,2013-02-22 18:01:00,
2013-02-22 10:06:00,59.0,15.6,30.17,NNW,346,0.0,9.0,18,0.00,,---,0.00,VWS V14.00,2013-02-22 18:06:00,
2013-02-22 10:11:00,59.5,17.2,30.17,NNW,345,8.0,11.0,19,0.00,,---,0.00,VWS V14.00,2013-02-22 18:11:00,
2013-02-22 10:16:00,59.8,16.2,30.17,NNW,343,8.0,13.0,18,0.00,,---,0.00,VWS V14.00,2013-02-22 18:16:00,
2013-02-22 10:21:00,59.9,16.3,30.17,NNW,343,9.0,9.0,18,0.00,,---,0.00,VWS V14.00,2013-02-22 18:21:00,
2013-02-22 10:26:00,59.9,16.3,30.17,NNW,343,6.0,11.0,18,0.00,,---,0.00,VWS V14.00,2013-02-22 18:26:00,
2013-02-22 10:31:00,60.1,16.5,30.17,NNW,342,7.0,12.0,18,0.00,,---,0.00,VWS V14.00,2013-02-22 18:31:00,
2013-02-22 10:36:00,60.3,17.9,30.17,SW,219,5.0,31.0,19,0.00,,---,0.00,VWS V14.00,2013-02-22 18:36:00,
2013-02-22 10:41:00,60.2,19.0,30.17,SSW,213,5.0,13.0,20,0.00,,---,0.00,VWS V14.00,2013-02-22 18:41:00,
2013-02-22 10:46:00,60.7,18.2,30.17,SSW,213,4.0,7.0,19,0.00,,---,0.00,VWS V14.00,2013-02-22 18:46:00,
2013-02-22 10:51:00,61.3,17.5,30.17,South,188,11.0,14.0,18,0.00,,---,0.00,VWS V14.00,2013-02-22 18:51:00,
2013-02-22 10:56:00,60.9,18.4,30.17,South,185,4.0,13.0,19,0.00,,---,0.00,VWS V14.00,2013-02-22 18:56:00,
2013-02-22 11:01:00,61.3,18.7,30.17,South,180,4.0,18.0,19,0.00,,---,0.00,VWS V14.00,2013-02-22 19:01:00,
2013-02-22 11:06:00,61.7,17.8,30.16,South,176,0.0,12.0,18,0.00,,---,0.00,VWS V14.00,2013-02-22 19:06:00,
2013-02-22 11:11:00,61.5,18.9,30.16,South,174,6.0,16.0,19,0.00,,---,0.00,VWS V14.00,2013-02-22 19:11:00,
2013-02-22 11:16:00,61.4,18.8,30.16,South,174,6.0,12.0,19,0.00,,---,0.00,VWS V14.00,2013-02-22 19:16:00,
2013-02-22 11:21:00,61.9,18.0,30.16,SSE,165,10.0,13.0,18,0.00,,---,0.00,VWS V14.00,2013-02-22 19:21:00,
2013-02-22 11:26:00,61.9,18.0,30.16,SSE,160,10.0,16.0,18,0.00,,---,0.00,VWS V14.00,2013-02-22 19:26:00,
2013-02-22 11:31:00,62.0,18.0,30.16,SSE,160,12.0,16.0,18,0.00,,---,0.00,VWS V14.00,2013-02-22 19:31:00,
2013-02-22 11:36:00,61.9,18.0,30.16,SSE,159,6.0,12.0,18,0.00,,---,0.00,VWS V14.00,2013-02-22 19:36:00,
2013-02-22 11:41:00,62.0,19.3,30.16,SSE,160,0.0,10.0,19,0.00,,---,0.00,VWS V14.00,2013-02-22 19:41:00,
2013-02-22 11:46:00,62.5,18.5,30.16,SSE,160,13.0,13.0,18,0.00,,---,0.00,VWS V14.00,2013-02-22 19:46:00,
2013-02-22 11:51:00,62.4,17.0,30.16,SSE,160,8.0,13.0,17,0.00,,---,0.00,VWS V14.00,2013-02-22 19:51:00,
2013-02-22 11:56:00,62.4,18.4,30.16,SSE,161,4.0,12.0,18,0.00,,---,0.00,VWS V14.00,2013-02-22 19:56:00,
2013-02-22 12:01:00,62.2,18.2,30.16,SSE,161,5.0,13.0,18,0.00,,---,0.00,VWS V14.00,2013-02-22 20:01:00,
2013-02-22 12:06:00,62.6,18.5,30.15,SSE,167,9.0,16.0,18,0.00,,---,0.00,VWS V14.00,2013-02-22 20:06:00,
2013-02-22 12:11:00,62.6,17.2,30.15,SSE,168,14.0,14.0,17,0.00,,---,0.00,VWS V14.00,2013-02-22 20:11:00,
2013-02-22 12:16:00,62.9,18.8,30.15,SSE,155,7.0,24.0,18,0.00,,---,0.00,VWS V14.00,2013-02-22 20:16:00,
2013-02-22 12:21:00,62.8,17.4,30.15,SSE,155,7.0,9.0,17,0.00,,---,0.00,VWS V14.00,2013-02-22 20:21:00,
2013-02-22 12:26:00,63.0,17.5,30.14,SSE,155,7.0,10.0,17,0.00,,---,0.00,VWS V14.00,2013-02-22 20:26:00,
2013-02-22 12:31:00,62.9,18.8,30.15,SSE,155,1.0,9.0,18,0.00,,---,0.00,VWS V14.00,2013-02-22 20:31:00,
2013-02-22 12:36:00,63.1,17.6,30.14,SSE,155,8.0,15.0,17,0.00,,---,0.00,VWS V14.00,2013-02-22 20:36:00,
2013-02-22 12:41:00,63.2,17.7,30.14,SSE,155,3.0,8.0,17,0.00,,---,0.00,VWS V14.00,2013-02-22 20:41:00,
2013-02-22 12:46:00,63.3,17.8,30.13,SSE,155,0.0,7.0,17,0.00,,---,0.00,VWS V14.00,2013-02-22 20:46:00,
2013-02-22 12:51:00,63.7,18.1,30.13,SSE,153,5.0,10.0,17,0.00,,---,0.00,VWS V14.00,2013-02-22 20:51:00,
2013-02-22 12:56:00,63.4,17.9,30.13,SSE,153,3.0,7.0,17,0.00,,---,0.00,VWS V14.00,2013-02-22 20:56:00,
2013-02-22 13:01:00,63.4,17.9,30.13,SE,143,3.0,15.0,17,0.00,,---,0.00,VWS V14.00,2013-02-22 21:01:00,
2013-02-22 13:06:00,63.4,17.9,30.12,SE,145,5.0,12.0,17,0.00,,---,0.00,VWS V14.00,2013-02-22 21:06:00,
2013-02-22 13:11:00,63.2,17.7,30.12,SE,146,0.0,14.0,17,0.00,,---,0.00,VWS V14.00,2013-02-22 21:11:00,
2013-02-22 13:16:00,63.8,18.2,30.12,SSE,147,8.0,12.0,17,0.00,,---,0.00,VWS V14.00,2013-02-22 21:16:00,
2013-02-22 13:21:00,64.1,18.4,30.11,SSE,147,3.0,12.0,17,0.00,,---,0.00,VWS V14.00,2013-02-22 21:21:00,
2013-02-22 13:26:00,64.3,18.6,30.12,SSE,148,8.0,10.0,17,0.00,,---,0.00,VWS V14.00,2013-02-22 21:26:00,
2013-02-22 13:31:00,64.7,17.5,30.11,SSE,148,10.0,12.0,16,0.00,,---,0.00,VWS V14.00,2013-02-22 21:31:00,
2013-02-22 13:36:00,65.1,19.2,30.11,SSE,151,9.0,15.0,17,0.00,,---,0.00,VWS V14.00,2013-02-22 21:36:00,
2013-02-22 13:41:00,65.3,18.0,30.11,SSW,194,7.0,17.0,16,0.00,,---,0.00,VWS V14.00,2013-02-22 21:41:00,
2013-02-22 13:46:00,65.1,17.8,30.11,SSW,198,9.0,17.0,16,0.00,,---,0.00,VWS V14.00,2013-02-22 21:46:00,
2013-02-22 13:51:00,64.9,16.2,30.10,SSW,209,5.0,16.0,15,0.00,,---,0.00,VWS V14.00,2013-02-22 21:51:00,
2013-02-22 13:56:00,64.8,17.6,30.10,SSW,209,5.0,16.0,16,0.00,,---,0.00,VWS V14.00,2013-02-22 21:56:00,
2013-02-22 14:01:00,65.0,17.8,30.10,SSW,209,7.0,11.0,16,0.00,,---,0.00,VWS V14.00,2013-02-22 22:01:00,
2013-02-22 14:06:00,65.0,16.3,30.10,SSW,209,3.0,9.0,15,0.00,,---,0.00,VWS V14.00,2013-02-22 22:06:00,
2013-02-22 14:11:00,64.7,16.0,30.10,SSW,209,0.0,8.0,15,0.00,,---,0.00,VWS V14.00,2013-02-22 22:11:00,
2013-02-22 14:16:00,65.8,16.9,30.09,SW,219,12.0,16.0,15,0.00,,---,0.00,VWS V14.00,2013-02-22 22:16:00,
2013-02-22 14:21:00,65.8,16.9,30.09,SW,224,10.0,19.0,15,0.00,,---,0.00,VWS V14.00,2013-02-22 22:21:00,
2013-02-22 14:26:00,65.6,16.7,30.09,SW,224,12.0,15.0,15,0.00,,---,0.00,VWS V14.00,2013-02-22 22:26:00,
2013-02-22 14:31:00,65.6,16.7,30.09,SW,231,12.0,17.0,15,0.00,,---,0.00,VWS V14.00,2013-02-22 22:31:00,
2013-02-22 14:36:00,65.8,16.9,30.09,SW,231,13.0,15.0,15,0.00,,---,0.00,VWS V14.00,2013-02-22 22:36:00,
2013-02-22 14:41:00,65.7,16.8,30.09,SW,230,8.0,16.0,15,0.00,,---,0.00,VWS V14.00,2013-02-22 22:41:00,
2013-02-22 14:46:00,66.2,17.2,30.08,SW,230,13.0,15.0,15,0.00,,---,0.00,VWS V14.00,2013-02-22 22:46:00,
2013-02-22 14:51:00,66.1,17.1,30.08,SW,229,13.0,18.0,15,0.00,,---,0.00,VWS V14.00,2013-02-22 22:51:00,
2013-02-22 14:56:00,66.0,17.1,30.08,SW,229,0.0,16.0,15,0.00,,---,0.00,VWS V14.00,2013-02-22 22:56:00,
2013-02-22 15:01:00,66.4,17.4,30.08,SW,229,7.0,14.0,15,0.00,,---,0.00,VWS V14.00,2013-02-22 23:01:00,
2013-02-22 15:06:00,66.4,17.4,30.08,SW,229,3.0,10.0,15,0.00,,---,0.00,VWS V14.00,2013-02-22 23:06:00,
2013-02-22 15:11:00,66.2,17.2,30.09,SW,230,11.0,16.0,15,0.00,,---,0.00,VWS V14.00,2013-02-22 23:11:00,
2013-02-22 15:16:00,66.1,17.1,30.09,SW,230,0.0,13.0,15,0.00,,---,0.00,VWS V14.00,2013-02-22 23:16:00,
2013-02-22 15:21:00,66.5,17.5,30.08,SW,230,6.0,9.0,15,0.00,,---,0.00,VWS V14.00,2013-02-22 23:21:00,
2013-02-22 15:26:00,66.3,15.7,30.08,SW,230,3.0,14.0,14,0.00,,---,0.00,VWS V14.00,2013-02-22 23:26:00,
2013-02-22 15:31:00,66.1,17.1,30.09,SW,230,7.0,8.0,15,0.00,,---,0.00,VWS V14.00,2013-02-22 23:31:00,
2013-02-22 15:36:00,66.0,17.1,30.09,SW,230,0.0,10.0,15,0.00,,---,0.00,VWS V14.00,2013-02-22 23:36:00,
2013-02-22 15:41:00,66.3,17.3,30.08,SW,230,0.0,10.0,15,0.00,,---,0.00,VWS V14.00,2013-02-22 23:41:00,
2013-02-22 15:46:00,66.5,15.9,30.09,SW,230,0.0,5.0,14,0.00,,---,0.00,VWS V14.00,2013-02-22 23:46:00,
2013-02-22 15:51:00,66.7,17.6,30.08,SW,230,0.0,6.0,15,0.00,,---,0.00,VWS V14.00,2013-02-22 23:51:00,
2013-02-22 15:57:00,66.8,17.7,30.08,SW,230,0.0,0.0,15,0.00,,---,0.00,VWS V14.00,2013-02-22 23:57:00,
2013-02-22 16:02:00,66.6,15.9,30.08,SW,230,3.0,3.0,14,0.00,,---,0.00,VWS V14.00,2013-02-23 00:02:00,
2013-02-22 16:07:00,66.3,18.8,30.08,SW,230,0.0,0.0,16,0.00,,---,0.00,VWS V14.00,2013-02-23 00:07:00,
2013-02-22 16:12:00,66.5,19.0,30.08,SW,230,0.0,5.0,16,0.00,,---,0.00,VWS V14.00,2013-02-23 00:12:00,
2013-02-22 16:17:00,66.8,17.7,30.08,SW,230,2.0,5.0,15,0.00,,---,0.00,VWS V14.00,2013-02-23 00:17:00,
2013-02-22 16:22:00,66.7,17.6,30.08,SW,230,6.0,6.0,15,0.00,,---,0.00,VWS V14.00,2013-02-23 00:22:00,
2013-02-22 16:27:00,66.5,17.5,30.08,SW,230,3.0,6.0,15,0.00,,---,0.00,VWS V14.00,2013-02-23 00:27:00,
2013-02-22 16:32:00,66.5,17.5,30.08,SW,230,1.0,6.0,15,0.00,,---,0.00,VWS V14.00,2013-02-23 00:32:00,
2013-02-22 16:37:00,66.5,17.5,30.08,SW,230,0.0,2.0,15,0.00,,---,0.00,VWS V14.00,2013-02-23 00:37:00,
2013-02-22 16:42:00,66.2,17.2,30.08,SW,230,4.0,5.0,15,0.00,,---,0.00,VWS V14.00,2013-02-23 00:42:00,
2013-02-22 16:47:00,65.8,16.9,30.09,SW,230,2.0,6.0,15,0.00,,---,0.00,VWS V14.00,2013-02-23 00:47:00,
2013-02-22 16:52:00,65.8,16.9,30.09,SW,230,0.0,0.0,15,0.00,,---,0.00,VWS V14.00,2013-02-23 00:52:00,
2013-02-22 16:57:00,65.6,16.7,30.09,SW,230,0.0,0.0,15,0.00,,---,0.00,VWS V14.00,2013-02-23 00:57:00,
2013-02-22 17:02:00,65.8,18.4,30.09,SW,230,2.0,4.0,16,0.00,,---,0.00,VWS V14.00,2013-02-23 01:02:00,
2013-02-22 17:07:00,65.9,17.0,30.09,SW,230,0.0,0.0,15,0.00,,---,0.00,VWS V14.00,2013-02-23 01:07:00,
2013-02-22 17:12:00,65.5,16.7,30.09,SW,230,0.0,0.0,15,0.00,,---,0.00,VWS V14.00,2013-02-23 01:12:00,
2013-02-22 17:17:00,65.0,17.8,30.09,SW,230,0.0,0.0,16,0.00,,---,0.00,VWS V14.00,2013-02-23 01:17:00,
2013-02-22 17:22:00,64.6,17.4,30.09,SW,230,0.0,0.0,16,0.00,,---,0.00,VWS V14.00,2013-02-23 01:22:00,
2013-02-22 17:27:00,64.1,18.4,30.09,SW,230,0.0,0.0,17,0.00,,---,0.00,VWS V14.00,2013-02-23 01:27:00,
2013-02-22 17:32:00,63.6,19.4,30.10,SW,230,0.0,0.0,18,0.00,,---,0.00,VWS V14.00,2013-02-23 01:32:00,
2013-02-22 17:37:00,62.9,20.0,30.10,SW,230,7.0,11.0,19,0.00,,---,0.00,VWS V14.00,2013-02-23 01:37:00,
2013-02-22 17:42:00,62.1,21.7,30.10,SW,227,3.0,10.0,21,0.00,,---,0.00,VWS V14.00,2013-02-23 01:42:00,
2013-02-22 17:47:00,61.4,23.3,30.10,SSW,204,5.0,7.0,23,0.00,,---,0.00,VWS V14.00,2013-02-23 01:47:00,
2013-02-22 17:52:00,60.9,22.9,30.10,SSW,204,5.0,7.0,23,0.00,,---,0.00,VWS V14.00,2013-02-23 01:52:00,
2013-02-22 17:57:00,60.4,23.5,30.11,SSW,204,2.0,4.0,24,0.00,,---,0.00,VWS V14.00,2013-02-23 01:57:00,
2013-02-22 18:02:00,60.1,23.2,30.11,SSW,204,0.0,0.0,24,0.00,,---,0.00,VWS V14.00,2013-02-23 02:02:00,
2013-02-22 18:07:00,59.7,22.9,30.11,SSW,204,3.0,5.0,24,0.00,,---,0.00,VWS V14.00,2013-02-23 02:07:00,
2013-02-22 18:12:00,59.4,22.6,30.11,SSW,204,5.0,9.0,24,0.00,,---,0.00,VWS V14.00,2013-02-23 02:12:00,
2013-02-22 18:17:00,59.1,22.4,30.11,SSW,204,2.0,4.0,24,0.00,,---,0.00,VWS V14.00,2013-02-23 02:17:00,
2013-02-22 18:22:00,58.8,22.1,30.12,SSW,204,1.0,3.0,24,0.00,,---,0.00,VWS V14.00,2013-02-23 02:22:00,
2013-02-22 18:27:00,58.5,22.8,30.12,SSW,204,0.0,0.0,25,0.00,,---,0.00,VWS V14.00,2013-02-23 02:27:00,
2013-02-22 18:32:00,58.1,22.5,30.12,SSW,204,0.0,0.0,25,0.00,,---,0.00,VWS V14.00,2013-02-23 02:32:00,
2013-02-22 18:37:00,57.8,23.2,30.12,SSW,204,0.0,0.0,26,0.00,,---,0.00,VWS V14.00,2013-02-23 02:37:00,
2013-02-22 18:42:00,57.6,23.0,30.12,SSW,204,0.0,0.0,26,0.00,,---,0.00,VWS V14.00,2013-02-23 02:42:00,
2013-02-22 18:47:00,57.6,23.0,30.12,SSW,204,0.0,0.0,26,0.00,,---,0.00,VWS V14.00,2013-02-23 02:47:00,
2013-02-22 18:52:00,57.5,22.9,30.12,SSW,204,2.0,3.0,26,0.00,,---,0.00,VWS V14.00,2013-02-23 02:52:00,
2013-02-22 18:57:00,57.2,23.5,30.12,SSW,204,0.0,0.0,27,0.00,,---,0.00,VWS V14.00,2013-02-23 02:57:00,
2013-02-22 19:02:00,57.2,23.5,30.12,SSW,204,0.0,0.0,27,0.00,,---,0.00,VWS V14.00,2013-02-23 03:02:00,
2013-02-22 19:07:00,57.2,23.5,30.12,SSW,204,0.0,0.0,27,0.00,,---,0.00,VWS V14.00,2013-02-23 03:07:00,
2013-02-22 19:12:00,57.1,22.6,30.12,SSW,204,0.0,0.0,26,0.00,,---,0.00,VWS V14.00,2013-02-23 03:12:00,
2013-02-22 19:17:00,57.1,23.5,30.12,SSW,204,0.0,0.0,27,0.00,,---,0.00,VWS V14.00,2013-02-23 03:17:00,
2013-02-22 19:22:00,56.9,23.3,30.12,SSW,204,1.0,2.0,27,0.00,,---,0.00,VWS V14.00,2013-02-23 03:22:00,
2013-02-22 19:27:00,56.6,23.0,30.12,SSW,204,0.0,0.0,27,0.00,,---,0.00,VWS V14.00,2013-02-23 03:27:00,
2013-02-22 19:32:00,56.4,22.9,30.12,SSW,204,0.0,0.0,27,0.00,,---,0.00,VWS V14.00,2013-02-23 03:32:00,
2013-02-22 19:37:00,56.5,22.0,30.12,SSW,204,0.0,0.0,26,0.00,,---,0.00,VWS V14.00,2013-02-23 03:37:00,
2013-02-22 19:42:00,56.6,22.1,30.12,SSW,204,0.0,0.0,26,0.00,,---,0.00,VWS V14.00,2013-02-23 03:42:00,
2013-02-22 19:47:00,56.6,22.1,30.13,SSW,204,0.0,0.0,26,0.00,,---,0.00,VWS V14.00,2013-02-23 03:47:00,
2013-02-22 19:52:00,56.1,24.3,30.13,SSW,204,0.0,0.0,29,0.00,,---,0.00,VWS V14.00,2013-02-23 03:52:00,
2013-02-22 19:57:00,55.1,24.2,30.13,SSW,204,2.0,4.0,30,0.00,,---,0.00,VWS V14.00,2013-02-23 03:57:00,
2013-02-22 20:02:00,54.8,23.2,30.13,SSW,204,2.0,3.0,29,0.00,,---,0.00,VWS V14.00,2013-02-23 04:02:00,
2013-02-22 20:07:00,54.8,24.0,30.13,SSW,204,2.0,4.0,30,0.00,,---,0.00,VWS V14.00,2013-02-23 04:07:00,
2013-02-22 20:12:00,54.6,23.0,30.13,SSW,204,3.0,5.0,29,0.00,,---,0.00,VWS V14.00,2013-02-23 04:12:00,
2013-02-22 20:18:00,54.9,23.3,30.13,SSW,204,0.0,3.0,29,0.00,,---,0.00,VWS V14.00,2013-02-23 04:18:00,
2013-02-22 20:23:00,55.0,23.4,30.14,SSW,204,0.0,0.0,29,0.00,,---,0.00,VWS V14.00,2013-02-23 04:23:00,
2013-02-22 20:28:00,55.2,22.7,30.14,SSW,204,2.0,2.0,28,0.00,,---,0.00,VWS V14.00,2013-02-23 04:28:00,
2013-02-22 20:33:00,55.0,23.4,30.14,SSW,204,3.0,4.0,29,0.00,,---,0.00,VWS V14.00,2013-02-23 04:33:00,
2013-02-22 20:38:00,54.6,22.2,30.14,SSW,204,2.0,4.0,28,0.00,,---,0.00,VWS V14.00,2013-02-23 04:38:00,
2013-02-22 20:43:00,54.9,22.4,30.14,SSW,204,1.0,4.0,28,0.00,,---,0.00,VWS V14.00,2013-02-23 04:43:00,
2013-02-22 20:48:00,55.0,22.5,30.14,SSW,204,0.0,1.0,28,0.00,,---,0.00,VWS V14.00,2013-02-23 04:48:00,
2013-02-22 20:53:00,55.0,21.6,30.14,SSW,204,3.0,4.0,27,0.00,,---,0.00,VWS V14.00,2013-02-23 04:53:00,
2013-02-22 20:58:00,55.1,22.6,30.14,SSW,204,1.0,3.0,28,0.00,,---,0.00,VWS V14.00,2013-02-23 04:58:00,
2013-02-22 21:01:00,55.1,22.6,30.14,SSW,204,2.0,7.0,28,0.00,,---,0.00,VWS V14.00,2013-02-23 05:01:00,
2013-02-22 21:03:00,55.1,22.6,30.14,SSW,204,6.0,7.0,28,0.00,,---,0.00,VWS V14.00,2013-02-23 05:03:00,
2013-02-22 21:06:00,55.2,22.7,30.14,SSW,204,7.0,7.0,28,0.00,,---,0.00,VWS V14.00,2013-02-23 05:06:00,
2013-02-22 21:11:00,55.2,22.7,30.14,SSW,204,2.0,7.0,28,0.00,,---,0.00,VWS V14.00,2013-02-23 05:11:00,
2013-02-22 21:16:00,55.2,23.5,30.14,SSW,204,6.0,7.0,29,0.00,,---,0.00,VWS V14.00,2013-02-23 05:16:00,
2013-02-22 21:23:00,55.1,23.4,30.15,SSW,204,4.0,4.0,29,0.00,,---,0.00,VWS V14.00,2013-02-23 05:23:00,
2013-02-22 21:28:00,55.3,23.6,30.15,SSW,204,1.0,3.0,29,0.00,,---,0.00,VWS V14.00,2013-02-23 05:28:00,
2013-02-22 21:33:00,55.1,24.2,30.15,SSW,204,2.0,4.0,30,0.00,,---,0.00,VWS V14.00,2013-02-23 05:33:00,
2013-02-22 21:38:00,54.8,24.0,30.15,SSW,204,2.0,3.0,30,0.00,,---,0.00,VWS V14.00,2013-02-23 05:38:00,
2013-02-22 21:43:00,54.5,24.5,30.15,SSW,204,0.0,3.0,31,0.00,,---,0.00,VWS V14.00,2013-02-23 05:43:00,
2013-02-22 21:48:00,54.4,25.2,30.15,SSW,204,0.0,0.0,32,0.00,,---,0.00,VWS V14.00,2013-02-23 05:48:00,
2013-02-22 21:53:00,54.1,24.9,30.15,SSW,204,0.0,3.0,32,0.00,,---,0.00,VWS V14.00,2013-02-23 05:53:00,
2013-02-22 21:58:00,54.2,25.0,30.15,SSW,204,1.0,3.0,32,0.00,,---,0.00,VWS V14.00,2013-02-23 05:58:00,
2013-02-22 22:03:00,54.2,25.7,30.15,SSW,204,0.0,3.0,33,0.00,,---,0.00,VWS V14.00,2013-02-23 06:03:00,
2013-02-22 22:08:00,53.9,25.5,30.15,SSW,204,3.0,4.0,33,0.00,,---,0.00,VWS V14.00,2013-02-23 06:08:00,
2013-02-22 22:13:00,53.7,25.3,30.14,SSW,204,1.0,2.0,33,0.00,,---,0.00,VWS V14.00,2013-02-23 06:13:00,
2013-02-22 22:18:00,53.7,26.0,30.14,SSW,204,2.0,4.0,34,0.00,,---,0.00,VWS V14.00,2013-02-23 06:18:00,
2013-02-22 22:23:00,53.8,25.4,30.14,SSW,204,3.0,6.0,33,0.00,,---,0.00,VWS V14.00,2013-02-23 06:23:00,
2013-02-22 22:28:00,53.9,25.5,30.14,SSW,204,2.0,6.0,33,0.00,,---,0.00,VWS V14.00,2013-02-23 06:28:00,
2013-02-22 22:33:00,53.8,26.1,30.14,SSW,204,3.0,5.0,34,0.00,,---,0.00,VWS V14.00,2013-02-23 06:33:00,
2013-02-22 22:38:00,53.6,25.9,30.14,SSW,204,2.0,6.0,34,0.00,,---,0.00,VWS V14.00,2013-02-23 06:38:00,
2013-02-22 22:43:00,53.6,26.6,30.14,SSW,204,2.0,4.0,35,0.00,,---,0.00,VWS V14.00,2013-02-23 06:43:00,
2013-02-22 22:48:00,53.8,28.8,30.14,SSW,204,1.0,3.0,38,0.00,,---,0.00,VWS V14.00,2013-02-23 06:48:00,
2013-02-22 22:53:00,53.9,29.5,30.14,SSW,204,3.0,3.0,39,0.00,,---,0.00,VWS V14.00,2013-02-23 06:53:00,
2013-02-22 22:58:00,53.9,29.5,30.14,SSW,204,2.0,3.0,39,0.00,,---,0.00,VWS V14.00,2013-02-23 06:58:00,
2013-02-22 23:03:00,53.9,30.1,30.14,SSW,204,1.0,2.0,40,0.00,,---,0.00,VWS V14.00,2013-02-23 07:03:00,
2013-02-22 23:08:00,54.4,30.6,30.13,SSW,204,0.0,2.0,40,0.00,,---,0.00,VWS V14.00,2013-02-23 07:08:00,
2013-02-22 23:13:00,54.0,30.9,30.13,SSW,204,0.0,0.0,41,0.00,,---,0.00,VWS V14.00,2013-02-23 07:13:00,
2013-02-22 23:18:00,52.9,30.5,30.13,SSW,204,0.0,2.0,42,0.00,,---,0.00,VWS V14.00,2013-02-23 07:18:00,
2013-02-22 23:23:00,52.3,29.9,30.13,SSW,204,0.0,2.0,42,0.00,,---,0.00,VWS V14.00,2013-02-23 07:23:00,
2013-02-22 23:28:00,51.9,30.1,30.13,SSW,204,0.0,2.0,43,0.00,,---,0.00,VWS V14.00,2013-02-23 07:28:00,
2013-02-22 23:33:00,52.2,31.0,30.13,SSW,204,0.0,2.0,44,0.00,,---,0.00,VWS V14.00,2013-02-23 07:33:00,
2013-02-22 23:38:00,52.3,31.0,30.13,SSW,204,0.0,0.0,44,0.00,,---,0.00,VWS V14.00,2013-02-23 07:38:00,
2013-02-22 23:43:00,52.6,30.8,30.13,SSW,204,0.0,2.0,43,0.00,,---,0.00,VWS V14.00,2013-02-23 07:43:00,
2013-02-22 23:48:00,52.6,31.3,30.13,SSW,204,0.0,0.0,44,0.00,,---,0.00,VWS V14.00,2013-02-23 07:48:00,
2013-02-22 23:53:00,52.3,31.0,30.13,SSW,204,0.0,2.0,44,0.00,,---,0.00,VWS V14.00,2013-02-23 07:53:00,
2013-02-22 23:58:00,51.9,30.7,30.13,SSW,204,2.0,3.0,44,0.00,,---,0.00,VWS V14.00,2013-02-23 07:58:00,